Time;durP1;ratioP1;P1;durP2;ratioP2;P2;SDS_P1;SDS_P2;PMS_P1;PMS_P2;Temp;Humidity;BMP_temperature;BMP_pressure;BME280_temperature;BME280_humidity;BME280_pressure;Samples;Min_cycle;Max_cycle;Signal;HPM_P1;HPM_P2
2020/12/26 00:01:08;;;;;;;8.10;1.35;;;5.30;93.20;;;;;;5028501;28;20072;-73
2020/12/26 00:03:34;;;;;;;5.28;1.20;;;5.30;93.30;;;;;;5039959;28;20064;-74
2020/12/26 00:05:59;;;;;;;5.65;1.08;;;5.30;93.40;;;;;;5024843;28;20049;-73
2020/12/26 00:08:25;;;;;;;7.25;1.00;;;5.40;93.70;;;;;;5025083;28;20076;-73
2020/12/26 00:10:51;;;;;;;7.88;0.90;;;5.40;93.50;;;;;;5044819;28;20045;-73
2020/12/26 00:13:17;;;;;;;8.60;1.00;;;5.40;93.50;;;;;;5044443;28;20041;-73
2020/12/26 00:15:42;;;;;;;4.28;1.15;;;5.40;93.50;;;;;;5042824;28;20115;-73
2020/12/26 00:18:08;;;;;;;5.22;1.20;;;5.50;93.70;;;;;;5043017;28;20037;-73
2020/12/26 00:20:34;;;;;;;3.92;0.85;;;5.50;93.50;;;;;;5024818;28;20050;-73
2020/12/26 00:22:59;;;;;;;5.40;2.65;;;5.50;93.60;;;;;;5024599;28;20379;-73
2020/12/26 00:25:25;;;;;;;3.83;0.70;;;5.60;93.60;;;;;;5040611;28;20041;-74
2020/12/26 00:27:51;;;;;;;6.35;1.25;;;5.50;93.70;;;;;;5044574;28;20106;-72
2020/12/26 00:30:17;;;;;;;9.57;0.80;;;5.50;94.00;;;;;;5041896;28;20121;-73
2020/12/26 00:32:42;;;;;;;2.15;0.60;;;5.50;94.10;;;;;;5042970;28;20295;-73
2020/12/26 00:35:08;;;;;;;7.28;1.13;;;5.50;94.30;;;;;;5040968;28;20444;-73
2020/12/26 00:37:34;;;;;;;5.72;1.10;;;5.50;94.40;;;;;;5043788;28;20056;-73
2020/12/26 00:39:59;;;;;;;8.45;1.08;;;5.40;94.50;;;;;;5028166;28;20534;-72
2020/12/26 00:42:25;;;;;;;6.95;1.00;;;5.30;94.80;;;;;;5024001;28;20042;-73
2020/12/26 00:44:50;;;;;;;5.32;0.80;;;5.20;95.20;;;;;;5035967;28;20127;-72
2020/12/26 00:47:16;;;;;;;2.22;0.57;;;5.30;95.40;;;;;;5024913;28;20050;-72
2020/12/26 00:49:42;;;;;;;4.63;0.98;;;5.30;95.70;;;;;;5036112;28;20049;-73
2020/12/26 00:52:07;;;;;;;5.40;1.05;;;5.30;96.00;;;;;;5043207;28;20056;-72
2020/12/26 00:54:33;;;;;;;9.60;0.75;;;5.40;96.40;;;;;;5031928;28;20045;-72
2020/12/26 00:56:59;;;;;;;5.80;1.13;;;5.40;96.50;;;;;;5023550;28;20046;-73
2020/12/26 00:59:25;;;;;;;5.05;0.88;;;5.40;96.80;;;;;;5032901;28;20106;-73
2020/12/26 01:01:54;;;;;;;7.00;0.95;;;5.40;96.90;;;;;;5043463;28;20437;-73
2020/12/26 01:04:20;;;;;;;6.03;0.85;;;5.30;97.20;;;;;;5033709;28;20054;-73
2020/12/26 01:06:52;;;;;;;6.05;0.95;;;5.30;97.30;;;;;;5023534;28;20046;-72
2020/12/26 01:09:17;;;;;;;2.58;0.40;;;5.20;97.70;;;;;;5030431;28;20061;-74
2020/12/26 01:11:43;;;;;;;4.85;0.55;;;5.40;97.30;;;;;;5043134;28;20246;-70
2020/12/26 01:14:08;;;;;;;6.30;1.15;;;5.40;97.20;;;;;;5029823;28;20050;-72
2020/12/26 01:16:34;;;;;;;4.72;0.65;;;5.30;97.50;;;;;;5022476;28;20103;-73
2020/12/26 01:19:00;;;;;;;5.72;0.80;;;5.20;97.70;;;;;;5023296;28;20049;-72
2020/12/26 01:21:26;;;;;;;4.00;0.45;;;5.30;97.60;;;;;;5022930;28;20103;-73
2020/12/26 01:23:51;;;;;;;4.50;0.50;;;5.30;97.60;;;;;;5033476;28;20045;-72
2020/12/26 01:26:17;;;;;;;1.90;0.40;;;5.30;97.60;;;;;;5058118;28;20055;-71
2020/12/26 01:28:45;;;;;;;3.17;0.52;;;5.20;97.70;;;;;;5034417;28;20251;-73
2020/12/26 01:31:12;;;;;;;4.68;0.47;;;5.30;97.50;;;;;;5023071;28;20049;-72
2020/12/26 01:33:37;;;;;;;1.35;0.40;;;5.30;97.70;;;;;;5027216;28;20480;-72
2020/12/26 01:36:03;;;;;;;2.55;0.50;;;5.30;97.70;;;;;;5042774;28;20049;-72
2020/12/26 01:38:29;;;;;;;2.22;0.45;;;5.20;97.80;;;;;;5036430;28;20076;-72
2020/12/26 01:40:54;;;;;;;4.43;0.73;;;5.10;98.10;;;;;;5022997;28;20291;-72
2020/12/26 01:43:20;;;;;;;2.35;0.40;;;5.00;98.30;;;;;;5026943;28;20327;-71
2020/12/26 01:45:46;;;;;;;4.38;0.70;;;4.90;98.70;;;;;;5041995;28;20106;-72
2020/12/26 01:48:16;;;;;;;3.25;0.90;;;5.00;98.90;;;;;;5038402;28;20044;-72
2020/12/26 01:50:42;;;;;;;1.88;0.40;;;4.90;98.90;;;;;;5029699;28;20650;-72
2020/12/26 01:53:10;;;;;;;9.50;0.55;;;5.00;98.90;;;;;;5039044;28;20408;-72
2020/12/26 01:55:37;;;;;;;5.53;0.70;;;4.90;98.80;;;;;;5022630;28;20112;-72
2020/12/26 01:58:03;;;;;;;6.68;1.85;;;4.80;98.90;;;;;;5024575;28;20085;-72
2020/12/26 02:00:29;;;;;;;5.22;0.75;;;4.80;98.90;;;;;;5041932;28;20140;-72
2020/12/26 02:02:55;;;;;;;11.98;0.93;;;4.80;99.00;;;;;;5041641;28;20128;-73
2020/12/26 02:05:20;;;;;;;2.70;0.65;;;4.70;99.10;;;;;;5022768;28;20303;-74
2020/12/26 02:07:47;;;;;;;8.98;1.05;;;4.70;99.30;;;;;;5041136;28;20041;-73
2020/12/26 02:10:15;;;;;;;4.60;0.98;;;4.60;99.10;;;;;;5023496;28;20056;-72
2020/12/26 02:12:41;;;;;;;6.95;0.80;;;4.60;99.10;;;;;;5039779;28;20493;-72
2020/12/26 02:15:07;;;;;;;4.32;0.90;;;4.60;99.00;;;;;;5042942;28;20053;-73
2020/12/26 02:17:32;;;;;;;6.43;0.70;;;4.60;99.10;;;;;;5024620;28;20041;-72
2020/12/26 02:19:58;;;;;;;8.82;0.68;;;4.60;99.00;;;;;;5039721;28;20048;-71
2020/12/26 02:22:24;;;;;;;4.75;0.90;;;4.50;99.00;;;;;;5027744;28;20446;-73
2020/12/26 02:24:49;;;;;;;4.05;0.65;;;4.50;99.00;;;;;;5022335;28;20585;-72
2020/12/26 02:27:15;;;;;;;4.57;0.90;;;4.50;98.90;;;;;;5034921;28;20044;-73
2020/12/26 02:29:40;;;;;;;8.20;0.93;;;4.50;98.90;;;;;;5027291;28;20037;-71
2020/12/26 02:32:06;;;;;;;3.25;0.82;;;4.40;98.90;;;;;;5031868;28;20060;-72
2020/12/26 02:34:32;;;;;;;7.95;1.02;;;4.40;98.90;;;;;;5041469;28;20079;-72
2020/12/26 02:36:57;;;;;;;10.43;0.90;;;4.40;99.00;;;;;;5023146;28;20099;-72
2020/12/26 02:39:23;;;;;;;2.88;0.73;;;4.30;99.10;;;;;;5022471;28;20041;-73
2020/12/26 02:41:49;;;;;;;5.63;1.08;;;4.30;99.20;;;;;;5038914;28;20581;-72
2020/12/26 02:44:15;;;;;;;13.15;1.88;;;4.30;99.20;;;;;;5042503;28;20049;-72
2020/12/26 02:46:40;;;;;;;5.97;1.25;;;4.30;99.00;;;;;;5025757;28;20235;-70
2020/12/26 02:49:06;;;;;;;8.70;1.38;;;4.30;99.00;;;;;;5021338;28;20050;-72
2020/12/26 02:51:35;;;;;;;7.00;1.20;;;4.40;99.00;;;;;;5035662;28;20408;-73
2020/12/26 02:54:00;;;;;;;4.70;1.00;;;4.30;99.10;;;;;;5031709;28;20073;-72
2020/12/26 02:56:26;;;;;;;7.72;1.10;;;4.30;99.10;;;;;;5035975;28;20045;-73
2020/12/26 02:58:52;;;;;;;5.10;1.13;;;4.30;99.10;;;;;;5036721;28;20372;-73
2020/12/26 03:01:18;;;;;;;5.65;1.10;;;4.20;99.30;;;;;;5025820;28;20494;-72
2020/12/26 03:03:43;;;;;;;7.90;1.10;;;4.20;99.20;;;;;;5031115;28;20045;-72
2020/12/26 03:06:11;;;;;;;6.10;0.80;;;4.20;99.30;;;;;;5033998;28;20088;-72
2020/12/26 03:08:38;;;;;;;5.68;1.05;;;4.10;99.50;;;;;;5029681;28;20049;-72
2020/12/26 03:11:03;;;;;;;8.60;1.48;;;4.10;99.50;;;;;;5045706;28;20401;-72
2020/12/26 03:13:29;;;;;;;7.10;1.20;;;4.20;99.20;;;;;;5041589;28;20041;-72
2020/12/26 03:15:57;;;;;;;7.05;1.30;;;4.20;99.10;;;;;;5033680;28;20143;-72
2020/12/26 03:18:23;;;;;;;7.57;2.10;;;4.20;99.10;;;;;;5042229;28;20413;-75
2020/12/26 03:20:48;;;;;;;8.07;1.38;;;4.30;98.90;;;;;;5025844;28;20125;-73
2020/12/26 03:23:14;;;;;;;15.07;1.25;;;4.30;99.00;;;;;;5025393;28;20387;-72
2020/12/26 03:25:39;;;;;;;13.10;1.70;;;4.30;99.20;;;;;;5044377;28;20131;-72
2020/12/26 03:28:05;;;;;;;8.05;1.27;;;4.30;99.40;;;;;;5045219;28;20036;-72
2020/12/26 03:30:30;;;;;;;7.68;1.20;;;4.30;99.50;;;;;;5025124;28;20077;-72
2020/12/26 03:32:56;;;;;;;8.38;1.23;;;4.30;99.50;;;;;;5023428;28;20206;-72
2020/12/26 03:35:22;;;;;;;14.05;1.90;;;4.30;99.50;;;;;;5042460;28;20401;-71
2020/12/26 03:37:47;;;;;;;7.47;1.45;;;4.30;99.30;;;;;;5045407;28;20037;-71
2020/12/26 03:40:13;;;;;;;8.30;1.65;;;4.30;99.20;;;;;;5028169;28;20045;-71
2020/12/26 03:42:39;;;;;;;6.88;1.50;;;4.30;99.10;;;;;;5024244;28;20099;-72
2020/12/26 03:45:05;;;;;;;6.03;1.27;;;4.30;98.90;;;;;;5039483;28;20057;-71
2020/12/26 03:47:31;;;;;;;7.70;1.50;;;4.30;98.80;;;;;;5043767;28;20501;-72
2020/12/26 03:49:57;;;;;;;12.82;1.58;;;4.30;98.80;;;;;;5042900;28;20041;-72
2020/12/26 03:52:22;;;;;;;8.25;1.38;;;4.30;98.90;;;;;;5044232;28;20224;-72
2020/12/26 03:54:48;;;;;;;9.55;1.50;;;4.30;98.90;;;;;;5030087;28;20128;-73
2020/12/26 03:57:14;;;;;;;7.25;1.55;;;4.30;98.80;;;;;;5034038;28;20075;-73
2020/12/26 03:59:41;;;;;;;13.43;1.80;;;4.30;98.70;;;;;;5029768;28;20052;-73
2020/12/26 04:02:06;;;;;;;11.15;1.27;;;4.30;98.80;;;;;;5031309;28;20320;-72
2020/12/26 04:04:33;;;;;;;5.97;0.93;;;4.30;98.70;;;;;;5044335;28;20132;-73
2020/12/26 04:06:58;;;;;;;8.10;1.20;;;4.30;98.50;;;;;;5038325;28;20521;-72
2020/12/26 04:09:24;;;;;;;6.30;1.20;;;4.40;98.50;;;;;;5033687;28;20044;-71
2020/12/26 04:11:50;;;;;;;14.23;2.75;;;4.40;98.40;;;;;;5040321;28;20294;-72
2020/12/26 04:14:15;;;;;;;3.88;1.38;;;4.30;98.50;;;;;;5024590;28;20478;-72
2020/12/26 04:16:41;;;;;;;10.90;1.42;;;4.30;98.70;;;;;;5023734;28;20048;-73
2020/12/26 04:19:07;;;;;;;10.25;1.25;;;4.30;98.80;;;;;;5041838;28;20037;-72
2020/12/26 04:21:32;;;;;;;6.32;1.52;;;4.30;98.80;;;;;;5043387;28;20489;-70
2020/12/26 04:23:58;;;;;;;5.57;1.40;;;4.30;98.90;;;;;;5024349;28;20046;-70
2020/12/26 04:26:23;;;;;;;11.35;2.45;;;4.30;99.10;;;;;;5023722;28;20490;-73
2020/12/26 04:28:50;;;;;;;8.80;1.40;;;4.30;99.20;;;;;;5044524;28;20449;-73
2020/12/26 04:31:16;;;;;;;8.50;1.45;;;4.30;99.10;;;;;;5043965;28;20136;-72
2020/12/26 04:33:42;;;;;;;8.38;1.65;;;4.30;99.20;;;;;;5039219;28;20050;-72
2020/12/26 04:36:08;;;;;;;8.75;1.63;;;4.30;99.10;;;;;;5024152;28;20041;-72
2020/12/26 04:38:34;;;;;;;5.90;1.70;;;4.30;99.00;;;;;;5040892;28;20454;-72
2020/12/26 04:41:01;;;;;;;8.98;1.40;;;4.30;99.00;;;;;;5043665;28;20053;-72
2020/12/26 04:43:27;;;;;;;9.18;1.70;;;4.30;99.10;;;;;;5027110;28;20038;-72
2020/12/26 04:45:56;;;;;;;7.03;1.65;;;4.20;99.00;;;;;;5024305;28;20049;-71
2020/12/26 04:48:31;;;;;;;8.50;1.60;;;4.20;99.10;;;;;;5038162;28;20044;-71
2020/12/26 04:51:01;;;;;;;7.20;1.60;;;4.20;99.20;;;;;;5043155;28;20114;-72
2020/12/26 04:53:34;;;;;;;8.55;2.13;;;4.20;99.30;;;;;;5027873;28;20041;-72
2020/12/26 04:56:03;;;;;;;11.85;1.50;;;4.10;99.30;;;;;;5022853;28;20124;-72
2020/12/26 04:58:34;;;;;;;9.60;1.73;;;4.10;99.30;;;;;;5038818;28;20780;-72
2020/12/26 05:01:00;;;;;;;4.22;2.25;;;4.20;99.40;;;;;;5031436;28;20076;-72
2020/12/26 05:03:27;;;;;;;7.20;2.20;;;4.20;99.40;;;;;;5022637;28;20103;-72
2020/12/26 05:06:04;;;;;;;12.20;3.08;;;4.20;99.40;;;;;;5033895;28;20202;-72
2020/12/26 05:08:29;;;;;;;6.38;1.70;;;4.20;99.40;;;;;;5027221;28;20080;-72
2020/12/26 05:10:56;;;;;;;9.95;2.22;;;4.30;99.50;;;;;;5032839;28;20497;-72
2020/12/26 05:13:22;;;;;;;4.18;1.70;;;4.30;99.30;;;;;;5043109;28;20513;-72
2020/12/26 05:15:47;;;;;;;12.13;2.63;;;4.40;99.40;;;;;;5034666;28;20053;-72
2020/12/26 05:18:13;;;;;;;11.40;2.10;;;4.40;99.30;;;;;;5035530;28;20306;-72
2020/12/26 05:20:38;;;;;;;11.77;2.70;;;4.40;99.30;;;;;;5035850;28;20041;-72
2020/12/26 05:23:12;;;;;;;12.35;2.10;;;4.40;99.30;;;;;;5023505;28;20045;-73
2020/12/26 05:25:45;;;;;;;11.98;3.95;;;4.50;99.30;;;;;;5028056;28;20437;-72
2020/12/26 05:28:11;;;;;;;8.98;2.35;;;4.40;99.20;;;;;;5029598;28;20513;-70
2020/12/26 05:30:38;;;;;;;11.07;3.05;;;4.50;99.20;;;;;;5027419;28;20563;-71
2020/12/26 05:33:06;;;;;;;7.60;2.53;;;4.50;99.30;;;;;;5042230;28;20068;-73
2020/12/26 05:36:02;;;;;;;10.93;2.83;;;4.50;99.30;;;;;;5038891;28;20038;-73
2020/12/26 05:38:27;;;;;;;11.93;2.50;;;4.50;99.40;;;;;;5035140;28;20401;-71
2020/12/26 05:41:01;;;;;;;9.20;2.58;;;4.50;99.40;;;;;;5036641;28;20038;-72
2020/12/26 05:43:32;;;;;;;8.13;2.17;;;4.50;99.30;;;;;;5022904;28;20037;-71
2020/12/26 05:45:58;;;;;;;7.80;2.30;;;4.60;99.30;;;;;;5028563;28;20039;-73
2020/12/26 05:48:25;;;;;;;15.65;2.78;;;4.60;99.30;;;;;;5026855;28;20601;-72
2020/12/26 05:50:57;;;;;;;16.42;3.00;;;4.60;99.20;;;;;;5024312;28;20171;-72
2020/12/26 05:53:25;;;;;;;10.82;3.00;;;4.60;99.30;;;;;;5023130;28;20098;-72
2020/12/26 05:55:51;;;;;;;6.97;2.58;;;4.70;99.40;;;;;;5025396;28;20175;-72
2020/12/26 05:58:25;;;;;;;13.98;2.88;;;4.70;99.30;;;;;;5045561;28;20499;-71
2020/12/26 06:00:52;;;;;;;13.32;2.92;;;4.70;99.40;;;;;;5041005;28;20044;-70
2020/12/26 06:03:29;;;;;;;9.73;2.75;;;4.70;99.30;;;;;;5041293;28;20114;-72
2020/12/26 06:05:56;;;;;;;17.38;3.58;;;4.70;99.50;;;;;;5024815;28;20057;-70
2020/12/26 06:08:23;;;;;;;14.27;3.47;;;4.70;99.60;;;;;;5036169;28;20049;-72
2020/12/26 06:11:03;;;;;;;16.65;2.83;;;4.80;99.60;;;;;;5042196;28;20064;-73
2020/12/26 06:13:30;;;;;;;16.50;2.90;;;4.80;99.60;;;;;;5022454;28;20045;-72
2020/12/26 06:16:01;;;;;;;8.85;2.15;;;4.80;99.70;;;;;;5021825;28;20060;-72
2020/12/26 06:18:31;;;;;;;10.65;2.80;;;4.70;99.70;;;;;;5021748;28;20045;-71
2020/12/26 06:20:57;;;;;;;6.93;2.40;;;4.80;99.80;;;;;;5021596;28;20069;-72
2020/12/26 06:23:24;;;;;;;11.57;3.03;;;4.80;99.90;;;;;;5042149;28;20122;-72
2020/12/26 06:25:52;;;;;;;11.82;2.70;;;4.80;99.90;;;;;;5042996;28;20049;-71
2020/12/26 06:28:25;;;;;;;9.35;3.10;;;4.80;99.80;;;;;;5024164;28;20085;-71
2020/12/26 06:31:04;;;;;;;12.00;2.38;;;4.90;99.90;;;;;;5022521;28;20169;-71
2020/12/26 06:33:40;;;;;;;8.15;2.60;;;4.90;99.80;;;;;;5024306;28;20049;-72
2020/12/26 06:36:08;;;;;;;9.68;2.40;;;5.00;99.70;;;;;;5026841;28;20113;-72
2020/12/26 06:38:34;;;;;;;9.15;2.60;;;5.00;99.80;;;;;;5025430;28;20410;-73
2020/12/26 06:41:04;;;;;;;12.75;2.75;;;5.00;99.80;;;;;;5026381;28;20049;-71
2020/12/26 06:43:39;;;;;;;14.23;3.78;;;5.00;99.80;;;;;;5043163;28;20776;-71
2020/12/26 06:46:14;;;;;;;14.60;2.60;;;5.00;99.90;;;;;;5046028;28;20107;-72
2020/12/26 06:48:41;;;;;;;10.45;2.72;;;5.00;99.90;;;;;;5026240;28;20188;-71
2020/12/26 06:51:41;;;;;;;11.98;2.83;;;5.10;99.80;;;;;;5025697;28;20049;-71
2020/12/26 06:54:07;;;;;;;11.23;2.90;;;5.00;99.80;;;;;;5026449;28;20150;-73
2020/12/26 06:56:36;;;;;;;7.28;2.47;;;5.10;99.80;;;;;;5028224;28;20044;-72
2020/12/26 06:59:06;;;;;;;13.85;3.95;;;5.10;99.90;;;;;;5045778;28;20090;-73
2020/12/26 07:01:34;;;;;;;11.18;3.22;;;5.00;99.90;;;;;;5042415;28;20500;-73
2020/12/26 07:04:17;;;;;;;13.23;2.72;;;5.10;99.90;;;;;;5045194;28;20106;-71
2020/12/26 07:06:48;;;;;;;10.30;2.35;;;5.10;99.90;;;;;;5039892;28;20434;-73
2020/12/26 07:09:17;;;;;;;9.88;2.72;;;5.10;99.90;;;;;;5025061;28;20053;-73
2020/12/26 07:11:50;;;;;;;15.98;3.30;;;5.10;99.90;;;;;;5030644;28;20041;-71
2020/12/26 07:14:32;;;;;;;10.32;2.88;;;5.10;99.90;;;;;;5043117;28;20140;-70
2020/12/26 07:17:03;;;;;;;9.05;3.08;;;5.10;99.90;;;;;;5031560;28;20048;-70
2020/12/26 07:19:36;;;;;;;12.48;2.65;;;5.20;99.90;;;;;;5035011;28;20037;-71
2020/12/26 07:22:05;;;;;;;;;;;5.10;99.90;;;;;;5036477;28;20041;-70
2020/12/26 07:24:37;;;;;;;11.98;2.80;;;5.10;99.90;;;;;;5035492;28;19921;-70
2020/12/26 07:27:23;;;;;;;8.93;2.30;;;5.20;99.90;;;;;;5043961;28;20041;-70
2020/12/26 07:30:09;;;;;;;11.05;2.90;;;5.20;99.90;;;;;;5043658;28;20107;-71
2020/12/26 07:32:50;;;;;;;11.40;2.85;;;5.10;99.90;;;;;;5042737;28;20327;-69
2020/12/26 07:35:22;;;;;;;13.95;2.45;;;5.20;99.90;;;;;;5041074;28;20041;-70
2020/12/26 07:37:53;;;;;;;12.32;2.15;;;5.30;99.90;;;;;;5044060;28;20049;-70
2020/12/26 07:40:27;;;;;;;13.02;2.35;;;5.30;99.80;;;;;;5041627;28;20463;-69
2020/12/26 07:42:53;;;;;;;8.73;2.38;;;5.30;99.70;;;;;;5043576;28;20136;-70
2020/12/26 07:45:26;;;;;;;7.30;1.80;;;5.30;99.60;;;;;;5034722;28;20344;-69
2020/12/26 07:47:54;;;;;;;14.80;2.72;;;5.40;99.40;;;;;;5022426;28;20034;-69
2020/12/26 07:50:22;;;;;;;10.88;2.00;;;5.50;99.20;;;;;;5030016;28;20088;-70
2020/12/26 07:52:48;;;;;;;9.68;2.63;;;5.50;99.10;;;;;;5042646;28;20421;-70
2020/12/26 07:55:14;;;;;;;7.70;2.33;;;5.60;98.90;;;;;;5038806;28;20037;-71
2020/12/26 07:57:40;;;;;;;6.03;1.85;;;5.50;98.90;;;;;;5038261;28;20492;-71
2020/12/26 08:00:07;;;;;;;11.55;2.08;;;5.60;98.80;;;;;;5041064;28;20597;-69
2020/12/26 08:02:33;;;;;;;5.95;1.60;;;5.60;98.60;;;;;;5027510;28;20041;-70
2020/12/26 08:04:59;;;;;;;12.43;1.80;;;5.60;98.60;;;;;;5033675;28;20091;-71
2020/12/26 08:07:31;;;;;;;9.25;1.42;;;5.60;98.50;;;;;;5042224;28;20061;-69
2020/12/26 08:09:58;;;;;;;8.67;1.70;;;5.60;98.40;;;;;;5031115;28;20428;-70
2020/12/26 08:12:23;;;;;;;10.63;1.95;;;5.70;98.30;;;;;;5039117;28;20055;-69
2020/12/26 08:14:59;;;;;;;9.23;2.05;;;5.70;98.10;;;;;;5042592;28;20037;-71
2020/12/26 08:17:26;;;;;;;8.32;1.40;;;5.70;98.00;;;;;;5042557;28;20053;-71
2020/12/26 08:20:01;;;;;;;11.75;3.13;;;5.60;98.10;;;;;;5043851;28;20048;-71
2020/12/26 08:22:27;;;;;;;10.70;2.42;;;5.60;98.30;;;;;;5035237;28;20072;-69
2020/12/26 08:25:06;;;;;;;7.75;1.60;;;5.60;98.30;;;;;;5039983;28;20049;-71
2020/12/26 08:27:32;;;;;;;10.65;1.77;;;5.60;98.40;;;;;;5040933;28;20041;-70
2020/12/26 08:30:10;;;;;;;5.07;1.35;;;5.60;98.30;;;;;;5042619;28;20498;-71
2020/12/26 08:33:05;;;;;;;8.15;1.55;;;5.60;98.30;;;;;;4993009;28;20357;-69
2020/12/26 08:35:32;;;;;;;8.15;1.52;;;5.60;98.30;;;;;;5022806;28;20050;-70
2020/12/26 08:38:05;;;;;;;9.68;1.80;;;5.70;98.00;;;;;;5023017;28;20140;-70
2020/12/26 08:40:35;;;;;;;6.18;1.30;;;5.70;97.80;;;;;;5037811;28;20045;-70
2020/12/26 08:43:02;;;;;;;12.18;1.30;;;5.70;97.50;;;;;;5022101;28;20056;-70
2020/12/26 08:45:34;;;;;;;8.85;1.23;;;5.70;97.20;;;;;;5022665;28;20049;-69
2020/12/26 08:48:14;;;;;;;4.80;1.27;;;5.80;97.00;;;;;;5020927;28;20041;-71
2020/12/26 08:50:40;;;;;;;5.72;0.98;;;5.90;96.80;;;;;;5022906;28;20064;-70
2020/12/26 08:53:08;;;;;;;5.95;1.13;;;5.90;96.10;;;;;;5037067;28;20072;-70
2020/12/26 08:55:54;;;;;;;3.90;0.75;;;6.00;95.90;;;;;;5005244;28;20303;-70
2020/12/26 08:58:31;;;;;;;7.63;1.55;;;6.00;95.70;;;;;;5021295;28;20064;-70
2020/12/26 09:01:01;;;;;;;9.55;1.20;;;6.00;95.50;;;;;;5022021;28;20053;-70
2020/12/26 09:03:30;;;;;;;3.72;0.95;;;6.10;95.30;;;;;;5022164;28;20568;-69
2020/12/26 09:05:58;;;;;;;4.43;1.02;;;6.00;95.60;;;;;;5022649;28;20556;-70
2020/12/26 09:08:31;;;;;;;14.25;1.60;;;6.10;95.50;;;;;;5022467;28;20421;-70
2020/12/26 09:11:00;;;;;;;9.63;1.33;;;6.10;95.70;;;;;;5022154;28;20096;-70
2020/12/26 09:13:36;;;;;;;7.07;1.02;;;6.10;95.80;;;;;;5021666;28;20486;-70
2020/12/26 09:16:07;;;;;;;4.50;1.30;;;6.10;95.90;;;;;;5020134;28;20497;-70
2020/12/26 09:18:39;;;;;;;6.30;1.42;;;6.20;96.00;;;;;;5018387;28;20111;-69
2020/12/26 09:21:06;;;;;;;8.85;1.52;;;6.20;96.10;;;;;;5021073;28;20033;-71
2020/12/26 09:23:38;;;;;;;6.05;1.40;;;6.20;96.10;;;;;;5032890;28;20056;-71
2020/12/26 09:26:16;;;;;;;10.48;1.70;;;6.30;95.80;;;;;;5022459;28;20049;-68
2020/12/26 09:28:44;;;;;;;10.25;1.17;;;6.30;96.00;;;;;;5003819;28;20057;-70
2020/12/26 09:31:11;;;;;;;10.60;1.73;;;6.30;96.00;;;;;;5021174;28;20490;-71
2020/12/26 09:33:38;;;;;;;7.53;1.20;;;6.30;96.00;;;;;;5021846;28;20497;-70
2020/12/26 09:36:10;;;;;;;5.35;1.00;;;6.30;95.70;;;;;;5022296;28;20052;-71
2020/12/26 09:38:36;;;;;;;8.30;1.37;;;6.40;95.80;;;;;;5020977;28;20038;-71
2020/12/26 09:41:16;;;;;;;7.72;1.25;;;6.40;95.80;;;;;;5021293;28;20513;-70
2020/12/26 09:43:43;;;;;;;11.13;1.45;;;6.40;95.60;;;;;;5021443;28;20522;-70
2020/12/26 09:46:09;;;;;;;6.13;1.38;;;6.40;95.60;;;;;;4964643;28;20053;-73
2020/12/26 09:48:35;;;;;;;8.35;1.50;;;6.40;95.40;;;;;;5017395;28;20504;-73
2020/12/26 09:51:00;;;;;;;9.55;1.50;;;6.50;95.40;;;;;;5022344;28;20352;-73
2020/12/26 09:53:27;;;;;;;4.88;1.05;;;6.50;95.40;;;;;;5020876;28;20128;-72
2020/12/26 09:55:53;;;;;;;11.15;1.25;;;6.50;95.60;;;;;;5022016;28;20072;-72
2020/12/26 09:58:18;;;;;;;7.55;2.40;;;6.50;95.60;;;;;;5019526;28;20458;-72
2020/12/26 10:00:44;;;;;;;4.20;1.30;;;6.50;95.60;;;;;;5020207;28;20465;-72
2020/12/26 10:03:10;;;;;;;8.85;1.27;;;6.50;95.70;;;;;;5020773;28;20585;-73
2020/12/26 10:05:36;;;;;;;9.60;1.40;;;6.50;95.70;;;;;;5021756;28;20054;-73
2020/12/26 10:08:02;;;;;;;8.00;1.27;;;6.50;95.70;;;;;;5021993;28;20449;-72
2020/12/26 10:10:28;;;;;;;11.20;2.50;;;6.40;95.80;;;;;;5025966;28;20402;-73
2020/12/26 10:12:53;;;;;;;7.35;1.15;;;6.50;95.60;;;;;;5025340;28;20049;-73
2020/12/26 10:15:19;;;;;;;6.72;1.05;;;6.40;95.80;;;;;;5025496;28;20494;-73
2020/12/26 10:17:45;;;;;;;5.20;1.15;;;6.40;95.70;;;;;;5024893;28;21047;-73
2020/12/26 10:20:11;;;;;;;9.93;1.98;;;6.40;95.80;;;;;;5025187;28;20838;-73
2020/12/26 10:22:36;;;;;;;10.60;1.90;;;6.40;95.80;;;;;;5025658;28;20037;-73
2020/12/26 10:25:02;;;;;;;5.10;1.52;;;6.40;95.90;;;;;;5025455;28;20049;-72
2020/12/26 10:27:28;;;;;;;8.32;1.58;;;6.50;95.80;;;;;;5018248;28;20505;-72
2020/12/26 10:29:53;;;;;;;4.47;1.13;;;6.40;95.50;;;;;;5025724;28;20053;-72
2020/12/26 10:32:19;;;;;;;6.32;1.15;;;6.40;95.40;;;;;;5024796;28;20050;-73
2020/12/26 10:34:45;;;;;;;3.30;1.00;;;6.50;95.60;;;;;;5025523;28;20128;-72
2020/12/26 10:37:14;;;;;;;10.38;2.03;;;6.50;95.50;;;;;;5025592;28;20038;-72
2020/12/26 10:39:40;;;;;;;7.85;1.55;;;6.40;95.70;;;;;;5025400;28;20041;-72
2020/12/26 10:42:05;;;;;;;7.45;1.63;;;6.40;96.30;;;;;;5024930;28;20052;-72
2020/12/26 10:44:31;;;;;;;9.32;2.47;;;6.30;96.70;;;;;;5025328;28;20111;-73
2020/12/26 10:46:56;;;;;;;8.77;2.10;;;6.20;97.00;;;;;;5024818;28;20099;-73
2020/12/26 10:49:22;;;;;;;10.20;2.30;;;6.20;97.20;;;;;;5024981;28;20128;-73
2020/12/26 10:51:48;;;;;;;8.52;2.58;;;6.20;97.40;;;;;;5025713;28;20493;-73
2020/12/26 10:54:14;;;;;;;7.80;2.15;;;6.10;97.00;;;;;;5024833;28;20037;-71
2020/12/26 10:56:48;;;;;;;8.45;2.63;;;6.10;97.20;;;;;;5024846;28;20049;-73
2020/12/26 10:59:14;;;;;;;10.52;2.45;;;6.20;97.00;;;;;;5020643;28;20050;-72
2020/12/26 11:01:40;;;;;;;7.43;2.10;;;6.20;96.90;;;;;;5024416;28;20046;-73
2020/12/26 11:04:06;;;;;;;10.75;2.33;;;6.20;96.90;;;;;;5024622;28;20549;-72
2020/12/26 11:06:32;;;;;;;9.75;2.97;;;6.10;97.50;;;;;;5016370;28;20050;-72
2020/12/26 11:08:58;;;;;;;7.80;2.40;;;6.10;97.80;;;;;;5018014;28;20523;-73
2020/12/26 11:11:24;;;;;;;12.65;2.55;;;6.00;98.20;;;;;;5024080;28;20088;-71
2020/12/26 11:13:49;;;;;;;8.57;3.90;;;6.00;98.40;;;;;;5024758;28;20069;-73
2020/12/26 11:16:16;;;;;;;17.45;4.03;;;5.90;98.50;;;;;;5037662;28;20137;-73
2020/12/26 11:18:43;;;;;;;6.72;2.80;;;5.90;98.30;;;;;;5023366;28;20519;-74
2020/12/26 11:21:13;;;;;;;12.80;4.00;;;5.90;98.40;;;;;;5023584;28;20056;-73
2020/12/26 11:23:39;;;;;;;7.35;3.03;;;5.90;98.60;;;;;;5015258;28;20045;-72
2020/12/26 11:26:05;;;;;;;9.70;2.80;;;5.90;98.50;;;;;;5023962;28;20425;-73
2020/12/26 11:28:30;;;;;;;14.80;3.75;;;5.90;98.50;;;;;;5023007;28;20117;-73
2020/12/26 11:30:56;;;;;;;12.13;3.40;;;5.90;98.40;;;;;;5022817;28;20465;-73
2020/12/26 11:33:22;;;;;;;12.40;3.55;;;5.90;98.30;;;;;;5021430;28;20132;-72
2020/12/26 11:35:48;;;;;;;7.32;3.53;;;5.90;98.40;;;;;;5022379;28;20124;-73
2020/12/26 11:38:14;;;;;;;11.10;3.25;;;6.00;98.10;;;;;;5021432;28;20049;-73
2020/12/26 11:40:39;;;;;;;9.75;3.03;;;6.00;98.10;;;;;;5021587;28;20056;-73
2020/12/26 11:43:05;;;;;;;10.30;3.17;;;6.00;98.10;;;;;;5022015;28;20046;-72
2020/12/26 11:45:31;;;;;;;9.75;2.63;;;6.10;98.00;;;;;;5021324;28;20052;-72
2020/12/26 11:47:56;;;;;;;9.85;3.25;;;6.00;97.90;;;;;;5022306;28;20147;-73
2020/12/26 11:50:22;;;;;;;5.68;2.72;;;6.10;97.90;;;;;;5022949;28;20037;-73
2020/12/26 11:52:48;;;;;;;7.40;2.88;;;6.10;97.70;;;;;;5022776;28;20482;-73
2020/12/26 11:55:13;;;;;;;11.07;3.08;;;6.10;97.80;;;;;;5023220;28;20052;-72
2020/12/26 11:57:39;;;;;;;9.55;3.55;;;6.10;97.80;;;;;;5022707;28;20041;-74
2020/12/26 12:00:05;;;;;;;8.20;2.75;;;6.20;97.40;;;;;;5022688;28;20325;-72
2020/12/26 12:02:30;;;;;;;7.15;2.63;;;6.10;97.50;;;;;;5021772;28;20050;-73
2020/12/26 12:04:56;;;;;;;13.80;3.60;;;6.10;97.70;;;;;;5038954;28;20037;-74
2020/12/26 12:07:22;;;;;;;13.77;3.00;;;6.10;97.40;;;;;;5022897;28;20387;-72
2020/12/26 12:09:47;;;;;;;8.82;3.40;;;6.20;97.30;;;;;;5023596;28;20042;-72
2020/12/26 12:12:13;;;;;;;10.65;2.70;;;6.20;97.30;;;;;;5023111;28;20402;-71
2020/12/26 12:14:39;;;;;;;11.55;3.70;;;6.20;97.40;;;;;;5004608;28;531466;-72
2020/12/26 12:17:04;;;;;;;12.77;3.40;;;6.20;97.40;;;;;;5022752;28;20050;-73
2020/12/26 12:19:30;;;;;;;8.85;3.22;;;6.20;97.60;;;;;;5023597;28;20049;-73
2020/12/26 12:21:55;;;;;;;10.95;3.13;;;6.10;97.80;;;;;;5023568;28;20487;-73
2020/12/26 12:24:21;;;;;;;14.68;3.78;;;6.10;98.10;;;;;;5018731;28;20478;-73
2020/12/26 12:26:47;;;;;;;8.20;2.85;;;6.00;98.40;;;;;;5023828;28;20049;-73
2020/12/26 12:29:12;;;;;;;10.75;3.50;;;6.00;98.70;;;;;;5022766;28;20506;-73
2020/12/26 12:31:39;;;;;;;14.02;3.88;;;5.90;99.00;;;;;;5021839;28;20049;-72
2020/12/26 12:34:06;;;;;;;12.48;4.53;;;5.90;99.60;;;;;;5023241;28;20077;-73
2020/12/26 12:36:32;;;;;;;12.82;4.25;;;5.70;99.90;;;;;;5023506;28;20057;-72
2020/12/26 12:38:57;;;;;;;11.48;4.03;;;5.70;99.90;;;;;;5022948;28;20109;-73
2020/12/26 12:41:23;;;;;;;11.15;4.55;;;5.60;99.90;;;;;;5022994;28;20047;-74
2020/12/26 12:43:49;;;;;;;19.13;5.65;;;5.60;99.90;;;;;;5023577;28;20132;-72
2020/12/26 12:46:14;;;;;;;15.13;6.43;;;5.50;99.90;;;;;;5021622;28;20128;-73
2020/12/26 12:48:40;;;;;;;10.68;5.75;;;5.50;99.90;;;;;;5021978;28;20040;-72
2020/12/26 12:51:09;;;;;;;13.07;6.15;;;5.50;99.90;;;;;;5022635;28;20049;-72
2020/12/26 12:53:34;;;;;;;14.82;7.22;;;5.40;99.90;;;;;;5021133;28;20049;-74
2020/12/26 12:56:00;;;;;;;16.13;7.30;;;5.40;99.90;;;;;;5021788;28;20068;-73